sensor_id;sensor_type;location;lat;lon;timestamp;P1;durP1;ratioP1;P2;durP2;ratioP2
5499;SDS011;2772;42.700;23.304;2024-03-23T00:56:18;27.47;;;14.43;;
5499;SDS011;2772;42.700;23.304;2024-03-23T00:58:44;30.20;;;13.80;;
5499;SDS011;2772;42.700;23.304;2024-03-23T01:01:11;26.83;;;14.90;;
5499;SDS011;2772;42.700;23.304;2024-03-23T01:03:36;27.17;;;14.60;;
5499;SDS011;2772;42.700;23.304;2024-03-23T01:06:03;26.43;;;11.70;;
5499;SDS011;2772;42.700;23.304;2024-03-23T01:08:29;29.63;;;12.70;;
5499;SDS011;2772;42.700;23.304;2024-03-23T01:10:57;27.73;;;13.63;;
5499;SDS011;2772;42.700;23.304;2024-03-23T01:13:24;23.77;;;13.50;;
5499;SDS011;2772;42.700;23.304;2024-03-23T01:15:52;33.33;;;13.50;;
5499;SDS011;2772;42.700;23.304;2024-03-23T01:18:18;25.67;;;13.47;;
5499;SDS011;2772;42.700;23.304;2024-03-23T01:20:45;31.67;;;12.87;;
5499;SDS011;2772;42.700;23.304;2024-03-23T01:23:11;24.27;;;12.10;;
5499;SDS011;2772;42.700;23.304;2024-03-23T01:25:38;22.83;;;12.37;;
5499;SDS011;2772;42.700;23.304;2024-03-23T01:28:05;21.37;;;11.80;;
5499;SDS011;2772;42.700;23.304;2024-03-23T01:30:32;26.13;;;12.23;;
5499;SDS011;2772;42.700;23.304;2024-03-23T01:32:58;20.77;;;10.77;;
5499;SDS011;2772;42.700;23.304;2024-03-23T01:35:25;20.23;;;9.23;;
5499;SDS011;2772;42.700;23.304;2024-03-23T01:37:52;17.93;;;9.50;;
5499;SDS011;2772;42.700;23.304;2024-03-23T01:40:19;14.07;;;8.77;;
5499;SDS011;2772;42.700;23.304;2024-03-23T01:42:54;16.63;;;8.70;;
5499;SDS011;2772;42.700;23.304;2024-03-23T01:45:23;20.60;;;8.90;;
5499;SDS011;2772;42.700;23.304;2024-03-23T01:47:49;23.13;;;9.47;;
5499;SDS011;2772;42.700;23.304;2024-03-23T01:50:16;15.73;;;8.90;;
5499;SDS011;2772;42.700;23.304;2024-03-23T01:52:42;24.10;;;9.70;;
5499;SDS011;2772;42.700;23.304;2024-03-23T01:55:09;18.73;;;9.07;;
5499;SDS011;2772;42.700;23.304;2024-03-23T01:57:35;22.13;;;10.57;;
5499;SDS011;2772;42.700;23.304;2024-03-23T02:00:02;16.63;;;9.10;;
5499;SDS011;2772;42.700;23.304;2024-03-23T02:02:30;19.53;;;8.63;;
5499;SDS011;2772;42.700;23.304;2024-03-23T02:04:56;15.03;;;9.00;;
5499;SDS011;2772;42.700;23.304;2024-03-23T02:07:22;14.17;;;8.90;;
5499;SDS011;2772;42.700;23.304;2024-03-23T02:09:49;19.47;;;9.37;;
5499;SDS011;2772;42.700;23.304;2024-03-23T02:12:16;19.90;;;10.30;;
5499;SDS011;2772;42.700;23.304;2024-03-23T02:14:44;18.00;;;8.80;;
5499;SDS011;2772;42.700;23.304;2024-03-23T02:17:09;21.90;;;9.13;;
5499;SDS011;2772;42.700;23.304;2024-03-23T02:19:38;17.23;;;9.17;;
5499;SDS011;2772;42.700;23.304;2024-03-23T02:22:03;16.20;;;9.60;;
5499;SDS011;2772;42.700;23.304;2024-03-23T02:24:32;14.83;;;8.80;;
5499;SDS011;2772;42.700;23.304;2024-03-23T02:26:59;13.87;;;7.90;;
5499;SDS011;2772;42.700;23.304;2024-03-23T02:29:25;15.13;;;8.60;;
5499;SDS011;2772;42.700;23.304;2024-03-23T02:31:51;17.33;;;8.50;;
5499;SDS011;2772;42.700;23.304;2024-03-23T02:34:18;14.67;;;8.20;;
5499;SDS011;2772;42.700;23.304;2024-03-23T02:36:43;15.87;;;8.07;;
5499;SDS011;2772;42.700;23.304;2024-03-23T02:39:10;16.97;;;8.90;;
5499;SDS011;2772;42.700;23.304;2024-03-23T02:41:37;18.33;;;8.70;;
5499;SDS011;2772;42.700;23.304;2024-03-23T02:44:04;16.00;;;9.13;;
5499;SDS011;2772;42.700;23.304;2024-03-23T02:46:30;16.37;;;8.37;;
5499;SDS011;2772;42.700;23.304;2024-03-23T02:48:57;15.03;;;8.57;;
5499;SDS011;2772;42.700;23.304;2024-03-23T02:51:23;14.60;;;8.33;;
5499;SDS011;2772;42.700;23.304;2024-03-23T02:53:49;14.00;;;8.40;;
5499;SDS011;2772;42.700;23.304;2024-03-23T02:56:15;18.10;;;9.07;;
5499;SDS011;2772;42.700;23.304;2024-03-23T02:58:43;13.77;;;8.20;;
5499;SDS011;2772;42.700;23.304;2024-03-23T03:01:09;10.97;;;7.53;;
5499;SDS011;2772;42.700;23.304;2024-03-23T03:03:36;18.20;;;8.40;;
5499;SDS011;2772;42.700;23.304;2024-03-23T03:06:01;12.63;;;7.60;;
5499;SDS011;2772;42.700;23.304;2024-03-23T03:08:28;12.93;;;6.90;;
5499;SDS011;2772;42.700;23.304;2024-03-23T03:10:54;11.83;;;7.07;;
5499;SDS011;2772;42.700;23.304;2024-03-23T03:13:21;14.73;;;7.47;;
5499;SDS011;2772;42.700;23.304;2024-03-23T03:15:48;10.17;;;6.97;;
5499;SDS011;2772;42.700;23.304;2024-03-23T03:18:15;9.87;;;6.40;;
5499;SDS011;2772;42.700;23.304;2024-03-23T03:20:40;17.55;;;8.45;;
5499;SDS011;2772;42.700;23.304;2024-03-23T03:23:07;13.53;;;8.33;;
5499;SDS011;2772;42.700;23.304;2024-03-23T03:25:33;9.67;;;6.90;;
5499;SDS011;2772;42.700;23.304;2024-03-23T03:28:00;12.30;;;7.63;;
5499;SDS011;2772;42.700;23.304;2024-03-23T03:30:26;12.03;;;7.50;;
5499;SDS011;2772;42.700;23.304;2024-03-23T03:32:55;12.97;;;8.23;;
5499;SDS011;2772;42.700;23.304;2024-03-23T03:35:20;19.90;;;10.30;;
5499;SDS011;2772;42.700;23.304;2024-03-23T03:37:47;16.87;;;10.40;;
5499;SDS011;2772;42.700;23.304;2024-03-23T03:40:13;16.90;;;8.30;;
5499;SDS011;2772;42.700;23.304;2024-03-23T03:42:41;16.17;;;9.90;;
5499;SDS011;2772;42.700;23.304;2024-03-23T03:45:07;10.90;;;7.00;;
5499;SDS011;2772;42.700;23.304;2024-03-23T03:47:34;11.33;;;7.63;;
5499;SDS011;2772;42.700;23.304;2024-03-23T03:50:01;13.23;;;7.70;;
5499;SDS011;2772;42.700;23.304;2024-03-23T03:52:27;11.13;;;6.80;;
5499;SDS011;2772;42.700;23.304;2024-03-23T03:54:55;23.67;;;7.97;;
5499;SDS011;2772;42.700;23.304;2024-03-23T03:57:28;12.33;;;6.60;;
5499;SDS011;2772;42.700;23.304;2024-03-23T03:59:54;10.93;;;6.53;;
5499;SDS011;2772;42.700;23.304;2024-03-23T04:02:21;9.00;;;6.00;;
5499;SDS011;2772;42.700;23.304;2024-03-23T04:04:46;12.03;;;7.00;;
5499;SDS011;2772;42.700;23.304;2024-03-23T04:07:15;16.93;;;6.10;;
5499;SDS011;2772;42.700;23.304;2024-03-23T04:09:41;9.93;;;6.80;;
5499;SDS011;2772;42.700;23.304;2024-03-23T04:12:07;10.87;;;6.60;;
5499;SDS011;2772;42.700;23.304;2024-03-23T04:14:34;9.40;;;6.30;;
5499;SDS011;2772;42.700;23.304;2024-03-23T04:17:00;8.40;;;6.50;;
5499;SDS011;2772;42.700;23.304;2024-03-23T04:19:27;11.47;;;6.47;;
5499;SDS011;2772;42.700;23.304;2024-03-23T04:21:54;16.57;;;7.37;;
5499;SDS011;2772;42.700;23.304;2024-03-23T04:24:21;9.80;;;6.30;;
5499;SDS011;2772;42.700;23.304;2024-03-23T04:26:50;13.87;;;7.73;;
5499;SDS011;2772;42.700;23.304;2024-03-23T04:29:15;13.07;;;7.17;;
5499;SDS011;2772;42.700;23.304;2024-03-23T04:31:42;11.70;;;6.90;;
5499;SDS011;2772;42.700;23.304;2024-03-23T04:34:08;14.77;;;7.10;;
5499;SDS011;2772;42.700;23.304;2024-03-23T04:36:34;8.90;;;6.20;;
5499;SDS011;2772;42.700;23.304;2024-03-23T04:39:01;10.23;;;6.70;;
5499;SDS011;2772;42.700;23.304;2024-03-23T04:41:30;11.70;;;7.03;;
5499;SDS011;2772;42.700;23.304;2024-03-23T04:43:58;17.53;;;7.70;;
5499;SDS011;2772;42.700;23.304;2024-03-23T04:46:25;13.50;;;7.40;;
5499;SDS011;2772;42.700;23.304;2024-03-23T04:48:51;15.23;;;8.13;;
5499;SDS011;2772;42.700;23.304;2024-03-23T04:51:21;11.93;;;8.17;;
5499;SDS011;2772;42.700;23.304;2024-03-23T04:53:48;17.13;;;7.70;;
5499;SDS011;2772;42.700;23.304;2024-03-23T04:56:15;15.93;;;7.97;;
5499;SDS011;2772;42.700;23.304;2024-03-23T04:58:42;22.23;;;8.43;;
5499;SDS011;2772;42.700;23.304;2024-03-23T05:01:10;19.47;;;8.23;;
5499;SDS011;2772;42.700;23.304;2024-03-23T05:03:36;14.30;;;6.47;;
5499;SDS011;2772;42.700;23.304;2024-03-23T05:06:02;12.37;;;7.20;;
5499;SDS011;2772;42.700;23.304;2024-03-23T05:08:28;12.23;;;7.40;;
5499;SDS011;2772;42.700;23.304;2024-03-23T05:10:55;12.57;;;7.60;;
5499;SDS011;2772;42.700;23.304;2024-03-23T05:13:21;11.57;;;7.30;;
5499;SDS011;2772;42.700;23.304;2024-03-23T05:15:52;21.53;;;7.93;;
5499;SDS011;2772;42.700;23.304;2024-03-23T05:18:18;16.63;;;7.93;;
5499;SDS011;2772;42.700;23.304;2024-03-23T05:20:45;13.87;;;7.77;;
5499;SDS011;2772;42.700;23.304;2024-03-23T05:23:10;15.30;;;7.60;;
5499;SDS011;2772;42.700;23.304;2024-03-23T05:25:37;10.73;;;6.83;;
5499;SDS011;2772;42.700;23.304;2024-03-23T05:28:03;22.60;;;8.60;;
5499;SDS011;2772;42.700;23.304;2024-03-23T05:30:30;15.33;;;7.93;;
5499;SDS011;2772;42.700;23.304;2024-03-23T05:32:57;14.90;;;8.30;;
5499;SDS011;2772;42.700;23.304;2024-03-23T05:35:24;15.23;;;7.53;;
5499;SDS011;2772;42.700;23.304;2024-03-23T05:37:50;16.47;;;7.70;;
5499;SDS011;2772;42.700;23.304;2024-03-23T05:40:16;14.77;;;7.30;;
5499;SDS011;2772;42.700;23.304;2024-03-23T05:42:42;8.60;;;6.17;;
5499;SDS011;2772;42.700;23.304;2024-03-23T05:45:09;8.23;;;5.40;;
5499;SDS011;2772;42.700;23.304;2024-03-23T05:47:34;11.03;;;6.90;;
5499;SDS011;2772;42.700;23.304;2024-03-23T05:50:03;10.10;;;6.37;;
5499;SDS011;2772;42.700;23.304;2024-03-23T05:52:29;8.47;;;5.20;;
5499;SDS011;2772;42.700;23.304;2024-03-23T05:54:56;12.90;;;8.53;;
5499;SDS011;2772;42.700;23.304;2024-03-23T05:57:21;8.60;;;6.40;;
5499;SDS011;2772;42.700;23.304;2024-03-23T05:59:48;12.03;;;6.47;;
5499;SDS011;2772;42.700;23.304;2024-03-23T06:02:14;9.50;;;5.67;;
5499;SDS011;2772;42.700;23.304;2024-03-23T06:04:46;13.73;;;6.23;;
5499;SDS011;2772;42.700;23.304;2024-03-23T06:07:14;6.60;;;5.43;;
5499;SDS011;2772;42.700;23.304;2024-03-23T06:09:40;9.00;;;6.33;;
5499;SDS011;2772;42.700;23.304;2024-03-23T06:12:07;13.70;;;6.70;;
5499;SDS011;2772;42.700;23.304;2024-03-23T06:14:34;10.80;;;7.30;;
5499;SDS011;2772;42.700;23.304;2024-03-23T06:17:00;10.50;;;6.73;;
5499;SDS011;2772;42.700;23.304;2024-03-23T06:19:27;21.53;;;7.70;;
5499;SDS011;2772;42.700;23.304;2024-03-23T06:21:53;17.23;;;7.50;;
5499;SDS011;2772;42.700;23.304;2024-03-23T06:24:21;14.90;;;8.07;;
5499;SDS011;2772;42.700;23.304;2024-03-23T06:26:47;13.60;;;7.73;;
5499;SDS011;2772;42.700;23.304;2024-03-23T06:29:14;16.40;;;8.07;;
5499;SDS011;2772;42.700;23.304;2024-03-23T06:31:39;14.43;;;8.20;;
5499;SDS011;2772;42.700;23.304;2024-03-23T06:34:06;12.73;;;8.33;;
5499;SDS011;2772;42.700;23.304;2024-03-23T06:36:32;14.10;;;7.63;;
5499;SDS011;2772;42.700;23.304;2024-03-23T06:38:59;19.80;;;7.80;;
5499;SDS011;2772;42.700;23.304;2024-03-23T06:41:26;12.60;;;8.03;;
5499;SDS011;2772;42.700;23.304;2024-03-23T06:43:53;11.70;;;8.13;;
5499;SDS011;2772;42.700;23.304;2024-03-23T06:46:18;16.50;;;9.33;;
5499;SDS011;2772;42.700;23.304;2024-03-23T06:48:45;16.27;;;8.63;;
5499;SDS011;2772;42.700;23.304;2024-03-23T06:51:11;14.50;;;8.90;;
5499;SDS011;2772;42.700;23.304;2024-03-23T06:53:37;15.73;;;8.80;;
5499;SDS011;2772;42.700;23.304;2024-03-23T06:56:03;17.63;;;9.70;;
5499;SDS011;2772;42.700;23.304;2024-03-23T06:58:32;17.40;;;9.30;;
5499;SDS011;2772;42.700;23.304;2024-03-23T07:00:58;17.17;;;9.13;;
5499;SDS011;2772;42.700;23.304;2024-03-23T07:03:24;15.90;;;8.17;;
5499;SDS011;2772;42.700;23.304;2024-03-23T07:05:51;23.37;;;8.53;;
5499;SDS011;2772;42.700;23.304;2024-03-23T07:08:17;15.77;;;8.50;;
5499;SDS011;2772;42.700;23.304;2024-03-23T07:10:47;15.10;;;8.63;;
5499;SDS011;2772;42.700;23.304;2024-03-23T07:13:14;19.13;;;10.07;;
5499;SDS011;2772;42.700;23.304;2024-03-23T07:15:41;16.53;;;9.67;;
5499;SDS011;2772;42.700;23.304;2024-03-23T07:18:07;13.73;;;8.47;;
5499;SDS011;2772;42.700;23.304;2024-03-23T07:20:33;18.00;;;10.13;;
5499;SDS011;2772;42.700;23.304;2024-03-23T07:23:01;21.53;;;9.80;;
5499;SDS011;2772;42.700;23.304;2024-03-23T07:25:28;20.37;;;10.10;;
5499;SDS011;2772;42.700;23.304;2024-03-23T07:27:54;28.10;;;8.90;;
5499;SDS011;2772;42.700;23.304;2024-03-23T07:30:21;23.57;;;10.17;;
5499;SDS011;2772;42.700;23.304;2024-03-23T07:32:48;29.13;;;10.87;;
5499;SDS011;2772;42.700;23.304;2024-03-23T07:35:14;18.80;;;10.17;;
5499;SDS011;2772;42.700;23.304;2024-03-23T07:37:40;22.73;;;9.53;;
5499;SDS011;2772;42.700;23.304;2024-03-23T07:40:08;21.73;;;10.07;;
5499;SDS011;2772;42.700;23.304;2024-03-23T07:42:34;25.53;;;12.10;;
5499;SDS011;2772;42.700;23.304;2024-03-23T07:45:01;21.83;;;10.87;;
5499;SDS011;2772;42.700;23.304;2024-03-23T07:47:27;19.17;;;11.00;;
5499;SDS011;2772;42.700;23.304;2024-03-23T07:49:55;16.00;;;8.53;;
5499;SDS011;2772;42.700;23.304;2024-03-23T07:52:21;21.37;;;12.37;;
5499;SDS011;2772;42.700;23.304;2024-03-23T07:54:47;25.00;;;12.83;;
5499;SDS011;2772;42.700;23.304;2024-03-23T07:57:13;18.57;;;9.40;;
5499;SDS011;2772;42.700;23.304;2024-03-23T07:59:40;23.60;;;9.80;;
5499;SDS011;2772;42.700;23.304;2024-03-23T08:02:05;14.93;;;9.37;;
5499;SDS011;2772;42.700;23.304;2024-03-23T08:04:32;18.50;;;10.07;;
5499;SDS011;2772;42.700;23.304;2024-03-23T08:06:59;17.40;;;10.47;;
5499;SDS011;2772;42.700;23.304;2024-03-23T08:09:27;22.60;;;10.00;;
5499;SDS011;2772;42.700;23.304;2024-03-23T08:11:52;17.50;;;9.83;;
5499;SDS011;2772;42.700;23.304;2024-03-23T08:14:19;18.63;;;11.60;;
5499;SDS011;2772;42.700;23.304;2024-03-23T08:16:45;26.53;;;11.70;;
5499;SDS011;2772;42.700;23.304;2024-03-23T08:19:14;27.40;;;10.90;;
5499;SDS011;2772;42.700;23.304;2024-03-23T08:21:40;16.93;;;10.40;;
5499;SDS011;2772;42.700;23.304;2024-03-23T08:24:08;19.73;;;9.20;;
5499;SDS011;2772;42.700;23.304;2024-03-23T08:26:34;19.97;;;11.20;;
5499;SDS011;2772;42.700;23.304;2024-03-23T08:29:02;35.40;;;11.20;;
5499;SDS011;2772;42.700;23.304;2024-03-23T08:31:28;22.00;;;11.17;;
5499;SDS011;2772;42.700;23.304;2024-03-23T08:33:55;19.30;;;9.30;;
5499;SDS011;2772;42.700;23.304;2024-03-23T08:36:20;23.13;;;11.10;;
5499;SDS011;2772;42.700;23.304;2024-03-23T08:38:47;22.37;;;10.30;;
5499;SDS011;2772;42.700;23.304;2024-03-23T08:41:16;15.70;;;9.87;;
5499;SDS011;2772;42.700;23.304;2024-03-23T08:43:43;20.37;;;11.73;;
5499;SDS011;2772;42.700;23.304;2024-03-23T08:46:09;24.97;;;11.80;;
5499;SDS011;2772;42.700;23.304;2024-03-23T08:48:37;22.30;;;12.00;;
5499;SDS011;2772;42.700;23.304;2024-03-23T08:51:04;18.83;;;10.10;;
5499;SDS011;2772;42.700;23.304;2024-03-23T08:53:32;32.57;;;13.17;;
5499;SDS011;2772;42.700;23.304;2024-03-23T08:55:58;22.47;;;11.03;;
5499;SDS011;2772;42.700;23.304;2024-03-23T08:58:27;22.43;;;11.50;;
5499;SDS011;2772;42.700;23.304;2024-03-23T09:00:54;49.73;;;11.43;;
5499;SDS011;2772;42.700;23.304;2024-03-23T09:03:22;19.97;;;11.17;;
5499;SDS011;2772;42.700;23.304;2024-03-23T09:05:48;25.95;;;11.10;;
5499;SDS011;2772;42.700;23.304;2024-03-23T09:08:15;20.20;;;11.17;;
5499;SDS011;2772;42.700;23.304;2024-03-23T09:10:41;19.70;;;11.40;;
5499;SDS011;2772;42.700;23.304;2024-03-23T09:13:09;16.63;;;10.73;;
5499;SDS011;2772;42.700;23.304;2024-03-23T09:15:37;19.53;;;11.40;;
5499;SDS011;2772;42.700;23.304;2024-03-23T09:18:13;19.03;;;12.10;;
5499;SDS011;2772;42.700;23.304;2024-03-23T09:20:38;16.60;;;10.90;;
5499;SDS011;2772;42.700;23.304;2024-03-23T09:23:05;21.80;;;11.90;;
5499;SDS011;2772;42.700;23.304;2024-03-23T09:25:31;17.23;;;11.30;;
5499;SDS011;2772;42.700;23.304;2024-03-23T09:27:58;17.27;;;10.20;;
5499;SDS011;2772;42.700;23.304;2024-03-23T09:30:23;24.27;;;12.20;;
5499;SDS011;2772;42.700;23.304;2024-03-23T09:32:52;27.30;;;12.00;;
5499;SDS011;2772;42.700;23.304;2024-03-23T09:35:19;26.73;;;11.37;;
5499;SDS011;2772;42.700;23.304;2024-03-23T09:37:46;18.77;;;12.27;;
5499;SDS011;2772;42.700;23.304;2024-03-23T09:40:12;19.07;;;10.60;;
5499;SDS011;2772;42.700;23.304;2024-03-23T09:42:38;19.30;;;11.00;;
5499;SDS011;2772;42.700;23.304;2024-03-23T09:45:05;25.20;;;10.67;;
5499;SDS011;2772;42.700;23.304;2024-03-23T09:47:37;21.13;;;10.87;;
5499;SDS011;2772;42.700;23.304;2024-03-23T09:50:05;16.70;;;10.33;;
5499;SDS011;2772;42.700;23.304;2024-03-23T09:52:34;25.30;;;11.48;;
5499;SDS011;2772;42.700;23.304;2024-03-23T09:55:00;18.13;;;10.93;;
5499;SDS011;2772;42.700;23.304;2024-03-23T09:57:27;17.40;;;9.70;;
5499;SDS011;2772;42.700;23.304;2024-03-23T09:59:52;13.53;;;9.83;;
5499;SDS011;2772;42.700;23.304;2024-03-23T10:02:20;18.43;;;11.07;;
5499;SDS011;2772;42.700;23.304;2024-03-23T10:04:46;25.67;;;11.10;;
5499;SDS011;2772;42.700;23.304;2024-03-23T10:07:18;17.50;;;11.00;;
5499;SDS011;2772;42.700;23.304;2024-03-23T10:09:45;22.93;;;11.30;;
5499;SDS011;2772;42.700;23.304;2024-03-23T10:12:14;21.23;;;11.73;;
5499;SDS011;2772;42.700;23.304;2024-03-23T10:14:43;22.50;;;11.50;;
5499;SDS011;2772;42.700;23.304;2024-03-23T10:17:11;22.53;;;11.60;;
5499;SDS011;2772;42.700;23.304;2024-03-23T10:19:39;18.37;;;11.80;;
5499;SDS011;2772;42.700;23.304;2024-03-23T10:22:06;18.93;;;11.27;;
5499;SDS011;2772;42.700;23.304;2024-03-23T10:24:34;18.80;;;10.83;;
5499;SDS011;2772;42.700;23.304;2024-03-23T10:27:01;17.37;;;10.60;;
5499;SDS011;2772;42.700;23.304;2024-03-23T10:29:29;22.43;;;9.60;;
5499;SDS011;2772;42.700;23.304;2024-03-23T10:32:07;19.30;;;9.53;;
5499;SDS011;2772;42.700;23.304;2024-03-23T10:34:35;21.37;;;9.63;;
5499;SDS011;2772;42.700;23.304;2024-03-23T10:37:03;15.57;;;8.63;;
5499;SDS011;2772;42.700;23.304;2024-03-23T10:39:33;14.47;;;9.00;;
5499;SDS011;2772;42.700;23.304;2024-03-23T10:42:03;17.97;;;10.07;;
5499;SDS011;2772;42.700;23.304;2024-03-23T10:44:29;19.77;;;9.73;;
5499;SDS011;2772;42.700;23.304;2024-03-23T10:46:58;18.83;;;9.70;;
5499;SDS011;2772;42.700;23.304;2024-03-23T10:49:30;14.63;;;9.53;;
5499;SDS011;2772;42.700;23.304;2024-03-23T10:51:57;29.83;;;11.10;;
5499;SDS011;2772;42.700;23.304;2024-03-23T10:54:24;16.00;;;9.60;;
5499;SDS011;2772;42.700;23.304;2024-03-23T10:56:55;28.63;;;9.50;;
5499;SDS011;2772;42.700;23.304;2024-03-23T10:59:23;17.23;;;9.30;;
5499;SDS011;2772;42.700;23.304;2024-03-23T11:01:59;16.70;;;8.73;;
5499;SDS011;2772;42.700;23.304;2024-03-23T11:04:31;16.30;;;10.30;;
5499;SDS011;2772;42.700;23.304;2024-03-23T11:06:58;19.00;;;9.90;;
5499;SDS011;2772;42.700;23.304;2024-03-23T11:09:40;15.43;;;8.90;;
5499;SDS011;2772;42.700;23.304;2024-03-23T11:15:10;15.90;;;9.30;;
5499;SDS011;2772;42.700;23.304;2024-03-23T11:17:37;14.90;;;8.40;;
5499;SDS011;2772;42.700;23.304;2024-03-23T11:20:05;15.87;;;8.33;;
5499;SDS011;2772;42.700;23.304;2024-03-23T11:22:38;18.30;;;9.13;;
5499;SDS011;2772;42.700;23.304;2024-03-23T11:25:13;14.00;;;8.73;;
5499;SDS011;2772;42.700;23.304;2024-03-23T11:27:44;15.10;;;8.70;;
5499;SDS011;2772;42.700;23.304;2024-03-23T11:30:12;12.63;;;7.67;;
5499;SDS011;2772;42.700;23.304;2024-03-23T11:32:39;9.60;;;7.10;;
5499;SDS011;2772;42.700;23.304;2024-03-23T11:35:06;11.67;;;7.43;;
5499;SDS011;2772;42.700;23.304;2024-03-23T11:37:34;21.27;;;7.97;;
5499;SDS011;2772;42.700;23.304;2024-03-23T11:40:00;14.03;;;7.80;;
5499;SDS011;2772;42.700;23.304;2024-03-23T11:42:41;15.87;;;8.00;;
5499;SDS011;2772;42.700;23.304;2024-03-23T11:45:10;12.53;;;7.20;;
5499;SDS011;2772;42.700;23.304;2024-03-23T11:47:36;12.13;;;6.63;;
5499;SDS011;2772;42.700;23.304;2024-03-23T11:50:03;15.60;;;7.50;;
5499;SDS011;2772;42.700;23.304;2024-03-23T11:52:29;15.73;;;7.10;;
5499;SDS011;2772;42.700;23.304;2024-03-23T11:55:02;15.43;;;7.83;;
5499;SDS011;2772;42.700;23.304;2024-03-23T11:57:28;14.77;;;7.40;;
5499;SDS011;2772;42.700;23.304;2024-03-23T11:59:56;14.20;;;7.43;;
5499;SDS011;2772;42.700;23.304;2024-03-23T12:02:23;10.53;;;6.00;;
5499;SDS011;2772;42.700;23.304;2024-03-23T12:04:50;15.50;;;6.20;;
5499;SDS011;2772;42.700;23.304;2024-03-23T12:07:16;7.93;;;6.10;;
5499;SDS011;2772;42.700;23.304;2024-03-23T12:09:44;22.53;;;5.70;;
5499;SDS011;2772;42.700;23.304;2024-03-23T12:12:13;12.33;;;6.93;;
5499;SDS011;2772;42.700;23.304;2024-03-23T12:14:42;9.70;;;6.70;;
5499;SDS011;2772;42.700;23.304;2024-03-23T12:17:11;10.33;;;5.80;;
5499;SDS011;2772;42.700;23.304;2024-03-23T12:19:40;9.93;;;6.27;;
5499;SDS011;2772;42.700;23.304;2024-03-23T12:22:06;9.40;;;6.37;;
5499;SDS011;2772;42.700;23.304;2024-03-23T12:24:33;14.07;;;5.30;;
5499;SDS011;2772;42.700;23.304;2024-03-23T12:27:00;11.10;;;4.27;;
5499;SDS011;2772;42.700;23.304;2024-03-23T12:29:28;8.30;;;4.90;;
5499;SDS011;2772;42.700;23.304;2024-03-23T12:31:56;12.97;;;6.27;;
5499;SDS011;2772;42.700;23.304;2024-03-23T12:34:23;9.60;;;6.05;;
5499;SDS011;2772;42.700;23.304;2024-03-23T12:36:50;10.53;;;5.43;;
5499;SDS011;2772;42.700;23.304;2024-03-23T12:39:17;12.77;;;5.80;;
5499;SDS011;2772;42.700;23.304;2024-03-23T12:41:43;5.03;;;4.20;;
5499;SDS011;2772;42.700;23.304;2024-03-23T12:44:10;5.67;;;4.90;;
5499;SDS011;2772;42.700;23.304;2024-03-23T12:46:37;4.03;;;2.90;;
5499;SDS011;2772;42.700;23.304;2024-03-23T12:49:04;4.60;;;3.70;;
5499;SDS011;2772;42.700;23.304;2024-03-23T12:51:31;6.80;;;3.43;;
5499;SDS011;2772;42.700;23.304;2024-03-23T12:53:59;6.90;;;4.43;;
5499;SDS011;2772;42.700;23.304;2024-03-23T12:56:25;5.53;;;1.60;;
5499;SDS011;2772;42.700;23.304;2024-03-23T12:58:53;2.40;;;2.20;;
5499;SDS011;2772;42.700;23.304;2024-03-23T13:01:20;1.57;;;1.47;;
5499;SDS011;2772;42.700;23.304;2024-03-23T13:03:47;5.40;;;2.33;;
5499;SDS011;2772;42.700;23.304;2024-03-23T13:06:13;4.47;;;2.60;;
5499;SDS011;2772;42.700;23.304;2024-03-23T13:08:39;2.40;;;2.30;;
5499;SDS011;2772;42.700;23.304;2024-03-23T13:11:07;15.90;;;8.70;;
5499;SDS011;2772;42.700;23.304;2024-03-23T13:13:34;2.57;;;2.00;;
5499;SDS011;2772;42.700;23.304;2024-03-23T13:15:59;7.63;;;5.20;;
5499;SDS011;2772;42.700;23.304;2024-03-23T13:18:27;2.80;;;1.80;;
5499;SDS011;2772;42.700;23.304;2024-03-23T13:20:53;7.97;;;2.33;;
5499;SDS011;2772;42.700;23.304;2024-03-23T13:23:20;5.23;;;2.67;;
5499;SDS011;2772;42.700;23.304;2024-03-23T13:25:49;1.80;;;1.70;;
5499;SDS011;2772;42.700;23.304;2024-03-23T13:28:19;5.90;;;2.77;;
5499;SDS011;2772;42.700;23.304;2024-03-23T13:30:51;4.13;;;2.00;;
5499;SDS011;2772;42.700;23.304;2024-03-23T13:33:18;2.57;;;2.37;;
5499;SDS011;2772;42.700;23.304;2024-03-23T13:35:51;5.80;;;2.70;;
5499;SDS011;2772;42.700;23.304;2024-03-23T13:38:18;5.70;;;4.47;;
5499;SDS011;2772;42.700;23.304;2024-03-23T13:40:50;3.93;;;1.83;;
5499;SDS011;2772;42.700;23.304;2024-03-23T13:43:19;3.83;;;2.73;;
5499;SDS011;2772;42.700;23.304;2024-03-23T13:45:46;4.40;;;3.23;;
5499;SDS011;2772;42.700;23.304;2024-03-23T13:48:13;21.53;;;3.90;;
5499;SDS011;2772;42.700;23.304;2024-03-23T13:50:39;4.10;;;3.60;;
5499;SDS011;2772;42.700;23.304;2024-03-23T13:53:06;3.63;;;2.33;;
5499;SDS011;2772;42.700;23.304;2024-03-23T13:55:33;10.93;;;2.90;;
5499;SDS011;2772;42.700;23.304;2024-03-23T13:58:00;2.77;;;2.57;;
5499;SDS011;2772;42.700;23.304;2024-03-23T14:00:27;2.23;;;2.13;;
5499;SDS011;2772;42.700;23.304;2024-03-23T14:02:53;3.33;;;2.50;;
5499;SDS011;2772;42.700;23.304;2024-03-23T14:05:19;4.70;;;3.13;;
5499;SDS011;2772;42.700;23.304;2024-03-23T14:07:46;5.20;;;2.37;;
5499;SDS011;2772;42.700;23.304;2024-03-23T14:10:12;3.93;;;3.53;;
5499;SDS011;2772;42.700;23.304;2024-03-23T14:12:38;5.70;;;2.73;;
5499;SDS011;2772;42.700;23.304;2024-03-23T14:15:07;2.23;;;2.07;;
5499;SDS011;2772;42.700;23.304;2024-03-23T14:17:35;6.77;;;2.50;;
5499;SDS011;2772;42.700;23.304;2024-03-23T14:20:01;6.03;;;3.07;;
5499;SDS011;2772;42.700;23.304;2024-03-23T14:22:30;8.53;;;2.83;;
5499;SDS011;2772;42.700;23.304;2024-03-23T14:24:56;5.00;;;2.83;;
5499;SDS011;2772;42.700;23.304;2024-03-23T14:27:22;10.13;;;2.77;;
5499;SDS011;2772;42.700;23.304;2024-03-23T14:29:48;2.80;;;2.60;;
5499;SDS011;2772;42.700;23.304;2024-03-23T14:32:16;5.10;;;2.90;;
5499;SDS011;2772;42.700;23.304;2024-03-23T14:34:43;3.43;;;3.10;;
5499;SDS011;2772;42.700;23.304;2024-03-23T14:37:10;4.23;;;3.80;;
5499;SDS011;2772;42.700;23.304;2024-03-23T14:39:35;3.23;;;2.90;;
5499;SDS011;2772;42.700;23.304;2024-03-23T14:42:04;7.53;;;4.47;;
5499;SDS011;2772;42.700;23.304;2024-03-23T14:44:31;8.70;;;3.80;;
5499;SDS011;2772;42.700;23.304;2024-03-23T14:46:58;3.87;;;3.43;;
5499;SDS011;2772;42.700;23.304;2024-03-23T14:49:24;5.77;;;3.40;;
5499;SDS011;2772;42.700;23.304;2024-03-23T14:51:52;3.07;;;2.77;;
5499;SDS011;2772;42.700;23.304;2024-03-23T14:54:18;3.90;;;3.60;;
5499;SDS011;2772;42.700;23.304;2024-03-23T14:56:44;5.40;;;3.17;;
5499;SDS011;2772;42.700;23.304;2024-03-23T14:59:12;8.53;;;4.73;;
5499;SDS011;2772;42.700;23.304;2024-03-23T15:01:39;5.63;;;4.50;;
5499;SDS011;2772;42.700;23.304;2024-03-23T15:04:05;5.30;;;3.90;;
5499;SDS011;2772;42.700;23.304;2024-03-23T15:06:32;7.47;;;4.90;;
5499;SDS011;2772;42.700;23.304;2024-03-23T15:09:00;13.27;;;4.57;;
5499;SDS011;2772;42.700;23.304;2024-03-23T15:11:26;5.63;;;4.37;;
5499;SDS011;2772;42.700;23.304;2024-03-23T15:13:52;12.20;;;4.13;;
5499;SDS011;2772;42.700;23.304;2024-03-23T15:16:20;6.03;;;3.50;;
5499;SDS011;2772;42.700;23.304;2024-03-23T15:18:46;13.53;;;6.50;;
5499;SDS011;2772;42.700;23.304;2024-03-23T15:21:13;8.60;;;3.90;;
5499;SDS011;2772;42.700;23.304;2024-03-23T15:23:44;5.67;;;4.70;;
5499;SDS011;2772;42.700;23.304;2024-03-23T15:26:13;12.30;;;5.00;;
5499;SDS011;2772;42.700;23.304;2024-03-23T15:28:39;9.03;;;6.10;;
5499;SDS011;2772;42.700;23.304;2024-03-23T15:31:06;11.50;;;4.70;;
5499;SDS011;2772;42.700;23.304;2024-03-23T15:33:34;6.80;;;4.57;;
5499;SDS011;2772;42.700;23.304;2024-03-23T15:36:01;12.93;;;4.63;;
5499;SDS011;2772;42.700;23.304;2024-03-23T15:38:27;9.23;;;5.77;;
5499;SDS011;2772;42.700;23.304;2024-03-23T15:40:55;8.30;;;4.83;;
5499;SDS011;2772;42.700;23.304;2024-03-23T15:43:22;7.90;;;4.57;;
5499;SDS011;2772;42.700;23.304;2024-03-23T15:45:55;7.67;;;4.80;;